sensor_id;sensor_type;location;lat;lon;timestamp;P1;durP1;ratioP1;P2;durP2;ratioP2
70543;SDS011;58097;48.364;-1.224;2024-01-27T00:00:04;27.30;;;8.68;;
70543;SDS011;58097;48.364;-1.224;2024-01-27T00:02:30;28.23;;;8.52;;
70543;SDS011;58097;48.364;-1.224;2024-01-27T00:04:55;19.90;;;6.35;;
70543;SDS011;58097;48.364;-1.224;2024-01-27T00:07:21;17.95;;;6.07;;
70543;SDS011;58097;48.364;-1.224;2024-01-27T00:09:47;14.43;;;5.53;;
70543;SDS011;58097;48.364;-1.224;2024-01-27T00:12:12;18.67;;;4.47;;
70543;SDS011;58097;48.364;-1.224;2024-01-27T00:14:38;21.98;;;5.47;;
70543;SDS011;58097;48.364;-1.224;2024-01-27T00:17:03;17.35;;;5.22;;
70543;SDS011;58097;48.364;-1.224;2024-01-27T00:19:29;14.57;;;5.05;;
70543;SDS011;58097;48.364;-1.224;2024-01-27T00:21:54;15.68;;;5.18;;
70543;SDS011;58097;48.364;-1.224;2024-01-27T00:24:19;18.77;;;5.90;;
70543;SDS011;58097;48.364;-1.224;2024-01-27T00:26:45;16.88;;;5.95;;
70543;SDS011;58097;48.364;-1.224;2024-01-27T00:29:10;23.55;;;6.10;;
70543;SDS011;58097;48.364;-1.224;2024-01-27T00:31:36;16.67;;;5.40;;
70543;SDS011;58097;48.364;-1.224;2024-01-27T00:34:01;17.98;;;6.28;;
70543;SDS011;58097;48.364;-1.224;2024-01-27T00:36:27;19.77;;;6.28;;
70543;SDS011;58097;48.364;-1.224;2024-01-27T00:38:52;22.77;;;5.82;;
70543;SDS011;58097;48.364;-1.224;2024-01-27T00:41:18;19.63;;;6.60;;
70543;SDS011;58097;48.364;-1.224;2024-01-27T00:43:43;21.42;;;6.05;;
70543;SDS011;58097;48.364;-1.224;2024-01-27T00:46:09;15.32;;;5.57;;
70543;SDS011;58097;48.364;-1.224;2024-01-27T00:48:34;15.73;;;5.80;;
70543;SDS011;58097;48.364;-1.224;2024-01-27T00:50:59;16.33;;;6.25;;
70543;SDS011;58097;48.364;-1.224;2024-01-27T00:53:25;22.30;;;6.45;;
70543;SDS011;58097;48.364;-1.224;2024-01-27T00:55:50;29.02;;;7.28;;
70543;SDS011;58097;48.364;-1.224;2024-01-27T00:58:16;26.42;;;7.45;;
70543;SDS011;58097;48.364;-1.224;2024-01-27T01:00:41;19.83;;;7.80;;
70543;SDS011;58097;48.364;-1.224;2024-01-27T01:03:06;22.05;;;8.05;;
70543;SDS011;58097;48.364;-1.224;2024-01-27T01:05:32;22.50;;;8.05;;
70543;SDS011;58097;48.364;-1.224;2024-01-27T01:07:57;22.13;;;7.32;;
70543;SDS011;58097;48.364;-1.224;2024-01-27T01:10:23;21.55;;;7.90;;
70543;SDS011;58097;48.364;-1.224;2024-01-27T01:12:48;16.42;;;5.57;;
70543;SDS011;58097;48.364;-1.224;2024-01-27T01:15:13;22.83;;;6.80;;
70543;SDS011;58097;48.364;-1.224;2024-01-27T01:17:39;15.57;;;6.15;;
70543;SDS011;58097;48.364;-1.224;2024-01-27T01:20:04;15.90;;;4.65;;
70543;SDS011;58097;48.364;-1.224;2024-01-27T01:22:30;13.23;;;4.55;;
70543;SDS011;58097;48.364;-1.224;2024-01-27T01:24:56;14.75;;;4.78;;
70543;SDS011;58097;48.364;-1.224;2024-01-27T01:27:21;18.50;;;5.03;;
70543;SDS011;58097;48.364;-1.224;2024-01-27T01:29:46;15.23;;;4.45;;
70543;SDS011;58097;48.364;-1.224;2024-01-27T01:32:12;17.35;;;4.35;;
70543;SDS011;58097;48.364;-1.224;2024-01-27T01:34:37;15.40;;;4.55;;
70543;SDS011;58097;48.364;-1.224;2024-01-27T01:37:03;12.68;;;4.30;;
70543;SDS011;58097;48.364;-1.224;2024-01-27T01:39:28;16.88;;;4.03;;
70543;SDS011;58097;48.364;-1.224;2024-01-27T01:41:54;15.85;;;4.35;;
70543;SDS011;58097;48.364;-1.224;2024-01-27T01:44:19;16.27;;;4.38;;
70543;SDS011;58097;48.364;-1.224;2024-01-27T01:46:45;10.65;;;4.25;;
70543;SDS011;58097;48.364;-1.224;2024-01-27T01:49:10;13.18;;;4.10;;
70543;SDS011;58097;48.364;-1.224;2024-01-27T01:51:36;22.63;;;4.90;;
70543;SDS011;58097;48.364;-1.224;2024-01-27T01:54:01;11.38;;;3.40;;
70543;SDS011;58097;48.364;-1.224;2024-01-27T01:56:27;12.48;;;3.80;;
70543;SDS011;58097;48.364;-1.224;2024-01-27T01:58:54;11.25;;;3.42;;
70543;SDS011;58097;48.364;-1.224;2024-01-27T02:01:20;20.05;;;4.05;;
70543;SDS011;58097;48.364;-1.224;2024-01-27T02:03:55;15.23;;;3.20;;
70543;SDS011;58097;48.364;-1.224;2024-01-27T02:06:21;11.70;;;3.63;;
70543;SDS011;58097;48.364;-1.224;2024-01-27T02:08:47;11.43;;;3.60;;
70543;SDS011;58097;48.364;-1.224;2024-01-27T02:11:12;18.13;;;3.92;;
70543;SDS011;58097;48.364;-1.224;2024-01-27T02:13:37;15.10;;;3.53;;
70543;SDS011;58097;48.364;-1.224;2024-01-27T02:16:03;17.73;;;4.07;;
70543;SDS011;58097;48.364;-1.224;2024-01-27T02:18:28;13.55;;;3.72;;
70543;SDS011;58097;48.364;-1.224;2024-01-27T02:20:54;14.32;;;4.15;;
70543;SDS011;58097;48.364;-1.224;2024-01-27T02:23:19;14.85;;;3.42;;
70543;SDS011;58097;48.364;-1.224;2024-01-27T02:25:45;16.48;;;4.05;;
70543;SDS011;58097;48.364;-1.224;2024-01-27T02:28:10;18.25;;;3.85;;
70543;SDS011;58097;48.364;-1.224;2024-01-27T02:30:37;23.95;;;4.00;;
70543;SDS011;58097;48.364;-1.224;2024-01-27T02:33:03;13.50;;;4.35;;
70543;SDS011;58097;48.364;-1.224;2024-01-27T02:35:29;17.20;;;4.03;;
70543;SDS011;58097;48.364;-1.224;2024-01-27T02:37:54;11.70;;;3.25;;
70543;SDS011;58097;48.364;-1.224;2024-01-27T02:40:19;12.95;;;3.15;;
70543;SDS011;58097;48.364;-1.224;2024-01-27T02:42:45;14.38;;;3.03;;
70543;SDS011;58097;48.364;-1.224;2024-01-27T02:45:10;10.85;;;2.97;;
70543;SDS011;58097;48.364;-1.224;2024-01-27T02:47:39;12.88;;;3.25;;
70543;SDS011;58097;48.364;-1.224;2024-01-27T02:50:04;7.70;;;2.58;;
70543;SDS011;58097;48.364;-1.224;2024-01-27T02:52:33;8.68;;;3.15;;
70543;SDS011;58097;48.364;-1.224;2024-01-27T02:54:59;10.23;;;3.10;;
70543;SDS011;58097;48.364;-1.224;2024-01-27T02:57:24;19.13;;;3.47;;
70543;SDS011;58097;48.364;-1.224;2024-01-27T02:59:50;14.32;;;3.30;;
70543;SDS011;58097;48.364;-1.224;2024-01-27T03:02:15;14.90;;;2.42;;
70543;SDS011;58097;48.364;-1.224;2024-01-27T03:04:40;14.63;;;2.60;;
70543;SDS011;58097;48.364;-1.224;2024-01-27T03:07:06;11.68;;;2.97;;
70543;SDS011;58097;48.364;-1.224;2024-01-27T03:09:31;20.17;;;2.95;;
70543;SDS011;58097;48.364;-1.224;2024-01-27T03:11:57;11.95;;;2.85;;
70543;SDS011;58097;48.364;-1.224;2024-01-27T03:14:22;11.88;;;2.35;;
70543;SDS011;58097;48.364;-1.224;2024-01-27T03:16:48;15.93;;;3.30;;
70543;SDS011;58097;48.364;-1.224;2024-01-27T03:19:13;18.33;;;3.15;;
70543;SDS011;58097;48.364;-1.224;2024-01-27T03:21:39;12.57;;;2.97;;
70543;SDS011;58097;48.364;-1.224;2024-01-27T03:24:04;14.52;;;2.90;;
70543;SDS011;58097;48.364;-1.224;2024-01-27T03:26:29;16.92;;;2.85;;
70543;SDS011;58097;48.364;-1.224;2024-01-27T03:28:55;12.88;;;3.13;;
70543;SDS011;58097;48.364;-1.224;2024-01-27T03:31:20;16.10;;;3.22;;
70543;SDS011;58097;48.364;-1.224;2024-01-27T03:33:45;10.00;;;2.55;;
70543;SDS011;58097;48.364;-1.224;2024-01-27T03:36:11;14.15;;;2.97;;
70543;SDS011;58097;48.364;-1.224;2024-01-27T03:38:37;15.90;;;3.78;;
70543;SDS011;58097;48.364;-1.224;2024-01-27T03:41:04;14.13;;;2.95;;
70543;SDS011;58097;48.364;-1.224;2024-01-27T03:43:30;7.65;;;2.45;;
70543;SDS011;58097;48.364;-1.224;2024-01-27T03:45:56;13.40;;;3.03;;
70543;SDS011;58097;48.364;-1.224;2024-01-27T03:48:22;17.65;;;2.63;;
70543;SDS011;58097;48.364;-1.224;2024-01-27T03:50:47;9.25;;;2.53;;
70543;SDS011;58097;48.364;-1.224;2024-01-27T03:53:12;13.27;;;2.95;;
70543;SDS011;58097;48.364;-1.224;2024-01-27T03:55:38;10.82;;;2.30;;
70543;SDS011;58097;48.364;-1.224;2024-01-27T03:58:04;14.95;;;2.75;;
70543;SDS011;58097;48.364;-1.224;2024-01-27T04:00:29;20.23;;;2.90;;
70543;SDS011;58097;48.364;-1.224;2024-01-27T04:02:57;11.75;;;2.60;;
70543;SDS011;58097;48.364;-1.224;2024-01-27T04:05:24;14.15;;;2.80;;
70543;SDS011;58097;48.364;-1.224;2024-01-27T04:07:50;13.20;;;2.78;;
70543;SDS011;58097;48.364;-1.224;2024-01-27T04:10:16;12.27;;;2.15;;
70543;SDS011;58097;48.364;-1.224;2024-01-27T04:12:42;8.40;;;2.20;;
70543;SDS011;58097;48.364;-1.224;2024-01-27T04:15:08;14.98;;;2.50;;
70543;SDS011;58097;48.364;-1.224;2024-01-27T04:17:34;9.30;;;2.45;;
70543;SDS011;58097;48.364;-1.224;2024-01-27T04:20:00;10.15;;;2.25;;
70543;SDS011;58097;48.364;-1.224;2024-01-27T04:22:25;8.50;;;2.40;;
70543;SDS011;58097;48.364;-1.224;2024-01-27T04:24:50;10.07;;;2.10;;
70543;SDS011;58097;48.364;-1.224;2024-01-27T04:27:16;10.90;;;2.13;;
70543;SDS011;58097;48.364;-1.224;2024-01-27T04:29:41;8.55;;;2.28;;
70543;SDS011;58097;48.364;-1.224;2024-01-27T04:32:07;13.77;;;2.10;;
70543;SDS011;58097;48.364;-1.224;2024-01-27T04:34:32;10.52;;;2.65;;
70543;SDS011;58097;48.364;-1.224;2024-01-27T04:36:57;9.00;;;1.90;;
70543;SDS011;58097;48.364;-1.224;2024-01-27T04:39:23;13.25;;;1.88;;
70543;SDS011;58097;48.364;-1.224;2024-01-27T04:41:48;11.32;;;1.92;;
70543;SDS011;58097;48.364;-1.224;2024-01-27T04:44:14;12.30;;;2.50;;
70543;SDS011;58097;48.364;-1.224;2024-01-27T04:46:39;6.30;;;1.70;;
70543;SDS011;58097;48.364;-1.224;2024-01-27T04:49:05;10.85;;;2.70;;
70543;SDS011;58097;48.364;-1.224;2024-01-27T04:51:30;12.43;;;2.13;;
70543;SDS011;58097;48.364;-1.224;2024-01-27T04:53:55;13.55;;;2.33;;
70543;SDS011;58097;48.364;-1.224;2024-01-27T04:56:21;19.10;;;2.67;;
70543;SDS011;58097;48.364;-1.224;2024-01-27T04:58:46;8.93;;;1.98;;
70543;SDS011;58097;48.364;-1.224;2024-01-27T05:01:12;18.38;;;2.78;;
70543;SDS011;58097;48.364;-1.224;2024-01-27T05:03:37;11.57;;;2.30;;
70543;SDS011;58097;48.364;-1.224;2024-01-27T05:06:02;10.15;;;2.22;;
70543;SDS011;58097;48.364;-1.224;2024-01-27T05:08:28;15.43;;;2.42;;
70543;SDS011;58097;48.364;-1.224;2024-01-27T05:10:53;12.88;;;2.65;;
70543;SDS011;58097;48.364;-1.224;2024-01-27T05:13:19;13.02;;;2.88;;
70543;SDS011;58097;48.364;-1.224;2024-01-27T05:15:44;12.00;;;3.20;;
70543;SDS011;58097;48.364;-1.224;2024-01-27T05:18:10;8.93;;;2.35;;
70543;SDS011;58097;48.364;-1.224;2024-01-27T05:20:35;8.65;;;2.58;;
70543;SDS011;58097;48.364;-1.224;2024-01-27T05:23:01;11.88;;;2.70;;
70543;SDS011;58097;48.364;-1.224;2024-01-27T05:25:26;10.70;;;2.67;;
70543;SDS011;58097;48.364;-1.224;2024-01-27T05:27:51;7.78;;;2.10;;
70543;SDS011;58097;48.364;-1.224;2024-01-27T05:30:17;10.60;;;2.65;;
70543;SDS011;58097;48.364;-1.224;2024-01-27T05:32:42;8.35;;;2.42;;
70543;SDS011;58097;48.364;-1.224;2024-01-27T05:35:08;13.15;;;2.08;;
70543;SDS011;58097;48.364;-1.224;2024-01-27T05:37:34;12.32;;;2.60;;
70543;SDS011;58097;48.364;-1.224;2024-01-27T05:40:00;12.52;;;2.50;;
70543;SDS011;58097;48.364;-1.224;2024-01-27T05:42:25;15.30;;;2.30;;
70543;SDS011;58097;48.364;-1.224;2024-01-27T05:44:50;11.45;;;2.50;;
70543;SDS011;58097;48.364;-1.224;2024-01-27T05:47:16;12.07;;;2.53;;
70543;SDS011;58097;48.364;-1.224;2024-01-27T05:49:41;10.00;;;2.13;;
70543;SDS011;58097;48.364;-1.224;2024-01-27T05:52:06;12.23;;;2.13;;
70543;SDS011;58097;48.364;-1.224;2024-01-27T05:54:32;15.52;;;2.60;;
70543;SDS011;58097;48.364;-1.224;2024-01-27T05:56:58;10.85;;;2.30;;
70543;SDS011;58097;48.364;-1.224;2024-01-27T05:59:23;12.35;;;2.60;;
70543;SDS011;58097;48.364;-1.224;2024-01-27T06:01:48;14.48;;;2.47;;
70543;SDS011;58097;48.364;-1.224;2024-01-27T06:04:14;15.45;;;2.85;;
70543;SDS011;58097;48.364;-1.224;2024-01-27T06:06:39;15.32;;;2.28;;
70543;SDS011;58097;48.364;-1.224;2024-01-27T06:09:05;8.77;;;2.17;;
70543;SDS011;58097;48.364;-1.224;2024-01-27T06:11:36;10.10;;;2.33;;
70543;SDS011;58097;48.364;-1.224;2024-01-27T06:14:02;6.55;;;2.10;;
70543;SDS011;58097;48.364;-1.224;2024-01-27T06:16:27;8.18;;;1.73;;
70543;SDS011;58097;48.364;-1.224;2024-01-27T06:18:52;11.20;;;2.22;;
70543;SDS011;58097;48.364;-1.224;2024-01-27T06:21:19;17.30;;;2.33;;
70543;SDS011;58097;48.364;-1.224;2024-01-27T06:23:45;16.85;;;2.28;;
70543;SDS011;58097;48.364;-1.224;2024-01-27T06:26:12;19.05;;;2.95;;
70543;SDS011;58097;48.364;-1.224;2024-01-27T06:28:38;14.50;;;3.25;;
70543;SDS011;58097;48.364;-1.224;2024-01-27T06:31:04;11.25;;;2.00;;
70543;SDS011;58097;48.364;-1.224;2024-01-27T06:33:30;11.90;;;3.00;;
70543;SDS011;58097;48.364;-1.224;2024-01-27T06:35:55;10.70;;;2.85;;
70543;SDS011;58097;48.364;-1.224;2024-01-27T06:38:21;12.32;;;2.38;;
70543;SDS011;58097;48.364;-1.224;2024-01-27T06:40:46;20.17;;;3.13;;
70543;SDS011;58097;48.364;-1.224;2024-01-27T06:43:12;16.63;;;2.80;;
70543;SDS011;58097;48.364;-1.224;2024-01-27T06:45:38;14.20;;;2.53;;
70543;SDS011;58097;48.364;-1.224;2024-01-27T06:48:04;14.57;;;3.05;;
70543;SDS011;58097;48.364;-1.224;2024-01-27T06:50:30;13.07;;;2.72;;
70543;SDS011;58097;48.364;-1.224;2024-01-27T06:52:56;21.98;;;2.97;;
70543;SDS011;58097;48.364;-1.224;2024-01-27T06:55:21;21.13;;;3.20;;
70543;SDS011;58097;48.364;-1.224;2024-01-27T06:57:46;14.50;;;2.97;;
70543;SDS011;58097;48.364;-1.224;2024-01-27T07:00:12;15.77;;;2.65;;
70543;SDS011;58097;48.364;-1.224;2024-01-27T07:02:39;23.08;;;6.18;;
70543;SDS011;58097;48.364;-1.224;2024-01-27T07:05:07;27.35;;;6.95;;
70543;SDS011;58097;48.364;-1.224;2024-01-27T07:07:32;21.92;;;6.22;;
70543;SDS011;58097;48.364;-1.224;2024-01-27T07:09:58;21.30;;;4.30;;
70543;SDS011;58097;48.364;-1.224;2024-01-27T07:12:23;16.08;;;3.72;;
70543;SDS011;58097;48.364;-1.224;2024-01-27T07:14:49;30.50;;;3.42;;
70543;SDS011;58097;48.364;-1.224;2024-01-27T07:17:14;15.05;;;2.80;;
70543;SDS011;58097;48.364;-1.224;2024-01-27T07:19:40;20.75;;;4.05;;
70543;SDS011;58097;48.364;-1.224;2024-01-27T07:22:05;15.52;;;2.72;;
70543;SDS011;58097;48.364;-1.224;2024-01-27T07:24:30;15.32;;;2.78;;
70543;SDS011;58097;48.364;-1.224;2024-01-27T07:26:56;17.73;;;3.20;;
70543;SDS011;58097;48.364;-1.224;2024-01-27T07:29:23;17.70;;;3.13;;
70543;SDS011;58097;48.364;-1.224;2024-01-27T07:31:49;17.25;;;2.75;;
70543;SDS011;58097;48.364;-1.224;2024-01-27T07:34:14;15.23;;;2.33;;
70543;SDS011;58097;48.364;-1.224;2024-01-27T07:36:40;20.90;;;3.00;;
70543;SDS011;58097;48.364;-1.224;2024-01-27T07:39:06;20.30;;;2.92;;
70543;SDS011;58097;48.364;-1.224;2024-01-27T07:41:31;14.35;;;3.40;;
70543;SDS011;58097;48.364;-1.224;2024-01-27T07:43:56;16.00;;;3.65;;
70543;SDS011;58097;48.364;-1.224;2024-01-27T07:46:22;18.70;;;3.05;;
70543;SDS011;58097;48.364;-1.224;2024-01-27T07:48:50;12.52;;;2.70;;
70543;SDS011;58097;48.364;-1.224;2024-01-27T07:51:16;14.00;;;2.92;;
70543;SDS011;58097;48.364;-1.224;2024-01-27T07:53:41;17.02;;;3.45;;
70543;SDS011;58097;48.364;-1.224;2024-01-27T07:56:07;14.70;;;2.88;;
70543;SDS011;58097;48.364;-1.224;2024-01-27T07:58:32;10.88;;;2.53;;
70543;SDS011;58097;48.364;-1.224;2024-01-27T08:00:58;16.45;;;2.90;;
70543;SDS011;58097;48.364;-1.224;2024-01-27T08:03:24;17.13;;;3.40;;
70543;SDS011;58097;48.364;-1.224;2024-01-27T08:05:49;15.07;;;3.78;;
70543;SDS011;58097;48.364;-1.224;2024-01-27T08:08:15;16.17;;;3.67;;
70543;SDS011;58097;48.364;-1.224;2024-01-27T08:10:40;23.70;;;4.55;;
70543;SDS011;58097;48.364;-1.224;2024-01-27T08:13:05;18.23;;;3.03;;
70543;SDS011;58097;48.364;-1.224;2024-01-27T08:15:32;18.55;;;3.47;;
70543;SDS011;58097;48.364;-1.224;2024-01-27T08:17:57;15.55;;;2.83;;
70543;SDS011;58097;48.364;-1.224;2024-01-27T08:20:22;16.42;;;3.13;;
70543;SDS011;58097;48.364;-1.224;2024-01-27T08:22:48;15.80;;;3.38;;
70543;SDS011;58097;48.364;-1.224;2024-01-27T08:25:16;18.13;;;3.70;;
70543;SDS011;58097;48.364;-1.224;2024-01-27T08:27:41;16.20;;;3.65;;
70543;SDS011;58097;48.364;-1.224;2024-01-27T08:30:07;22.30;;;4.60;;
70543;SDS011;58097;48.364;-1.224;2024-01-27T08:32:33;21.23;;;5.90;;
70543;SDS011;58097;48.364;-1.224;2024-01-27T08:34:59;20.50;;;4.43;;
70543;SDS011;58097;48.364;-1.224;2024-01-27T08:37:25;18.27;;;5.15;;
70543;SDS011;58097;48.364;-1.224;2024-01-27T08:39:50;12.73;;;4.38;;
70543;SDS011;58097;48.364;-1.224;2024-01-27T08:42:16;22.73;;;5.75;;
70543;SDS011;58097;48.364;-1.224;2024-01-27T08:44:41;20.65;;;4.85;;
70543;SDS011;58097;48.364;-1.224;2024-01-27T08:47:07;18.67;;;4.22;;
70543;SDS011;58097;48.364;-1.224;2024-01-27T08:49:32;26.92;;;5.70;;
70543;SDS011;58097;48.364;-1.224;2024-01-27T08:51:58;25.35;;;5.78;;
70543;SDS011;58097;48.364;-1.224;2024-01-27T08:54:23;14.80;;;4.15;;
70543;SDS011;58097;48.364;-1.224;2024-01-27T08:56:49;19.40;;;5.57;;
70543;SDS011;58097;48.364;-1.224;2024-01-27T08:59:14;22.15;;;4.53;;
70543;SDS011;58097;48.364;-1.224;2024-01-27T09:01:39;14.55;;;6.32;;
70543;SDS011;58097;48.364;-1.224;2024-01-27T09:04:05;17.45;;;5.47;;
70543;SDS011;58097;48.364;-1.224;2024-01-27T09:06:30;18.50;;;4.93;;
70543;SDS011;58097;48.364;-1.224;2024-01-27T09:08:55;22.48;;;4.22;;
70543;SDS011;58097;48.364;-1.224;2024-01-27T09:11:21;19.85;;;3.80;;
70543;SDS011;58097;48.364;-1.224;2024-01-27T09:13:52;20.58;;;4.15;;
70543;SDS011;58097;48.364;-1.224;2024-01-27T09:16:18;19.52;;;4.85;;
70543;SDS011;58097;48.364;-1.224;2024-01-27T09:18:43;19.90;;;4.55;;
70543;SDS011;58097;48.364;-1.224;2024-01-27T09:21:08;23.02;;;5.65;;
70543;SDS011;58097;48.364;-1.224;2024-01-27T09:23:34;22.42;;;5.88;;
70543;SDS011;58097;48.364;-1.224;2024-01-27T09:26:00;12.48;;;4.53;;
70543;SDS011;58097;48.364;-1.224;2024-01-27T09:28:25;20.48;;;5.22;;
70543;SDS011;58097;48.364;-1.224;2024-01-27T09:30:51;21.35;;;4.97;;
70543;SDS011;58097;48.364;-1.224;2024-01-27T09:33:16;19.15;;;4.88;;
70543;SDS011;58097;48.364;-1.224;2024-01-27T09:35:48;27.58;;;5.95;;
70543;SDS011;58097;48.364;-1.224;2024-01-27T09:38:14;19.63;;;3.92;;
70543;SDS011;58097;48.364;-1.224;2024-01-27T09:40:39;18.35;;;5.05;;
70543;SDS011;58097;48.364;-1.224;2024-01-27T09:43:05;20.42;;;4.35;;
70543;SDS011;58097;48.364;-1.224;2024-01-27T09:45:31;15.85;;;3.42;;
70543;SDS011;58097;48.364;-1.224;2024-01-27T09:47:57;15.23;;;3.38;;
70543;SDS011;58097;48.364;-1.224;2024-01-27T09:50:25;19.02;;;3.95;;
70543;SDS011;58097;48.364;-1.224;2024-01-27T09:52:52;13.35;;;3.28;;
70543;SDS011;58097;48.364;-1.224;2024-01-27T09:55:18;13.45;;;3.65;;
70543;SDS011;58097;48.364;-1.224;2024-01-27T09:57:43;13.82;;;3.65;;
70543;SDS011;58097;48.364;-1.224;2024-01-27T10:00:09;17.40;;;3.47;;
70543;SDS011;58097;48.364;-1.224;2024-01-27T10:02:38;21.38;;;3.67;;
70543;SDS011;58097;48.364;-1.224;2024-01-27T10:05:05;16.77;;;3.55;;
70543;SDS011;58097;48.364;-1.224;2024-01-27T10:07:33;17.92;;;4.15;;
70543;SDS011;58097;48.364;-1.224;2024-01-27T10:09:59;14.20;;;3.65;;
70543;SDS011;58097;48.364;-1.224;2024-01-27T10:12:24;12.50;;;3.13;;
70543;SDS011;58097;48.364;-1.224;2024-01-27T10:14:51;17.90;;;4.03;;
70543;SDS011;58097;48.364;-1.224;2024-01-27T10:17:21;9.15;;;2.70;;
70543;SDS011;58097;48.364;-1.224;2024-01-27T10:19:48;23.48;;;3.55;;
70543;SDS011;58097;48.364;-1.224;2024-01-27T10:22:26;17.33;;;2.92;;
70543;SDS011;58097;48.364;-1.224;2024-01-27T10:24:51;13.23;;;2.90;;
70543;SDS011;58097;48.364;-1.224;2024-01-27T10:27:17;15.73;;;2.70;;
70543;SDS011;58097;48.364;-1.224;2024-01-27T10:29:51;15.95;;;3.22;;
70543;SDS011;58097;48.364;-1.224;2024-01-27T10:32:18;14.43;;;3.67;;
70543;SDS011;58097;48.364;-1.224;2024-01-27T10:34:43;15.90;;;3.22;;
70543;SDS011;58097;48.364;-1.224;2024-01-27T10:37:11;13.15;;;3.38;;
70543;SDS011;58097;48.364;-1.224;2024-01-27T10:39:38;15.68;;;3.17;;
70543;SDS011;58097;48.364;-1.224;2024-01-27T10:42:03;13.82;;;3.70;;
70543;SDS011;58097;48.364;-1.224;2024-01-27T10:44:30;11.00;;;3.60;;
70543;SDS011;58097;48.364;-1.224;2024-01-27T10:46:56;11.43;;;3.22;;
70543;SDS011;58097;48.364;-1.224;2024-01-27T10:49:27;16.83;;;3.53;;
70543;SDS011;58097;48.364;-1.224;2024-01-27T10:51:57;18.35;;;3.42;;
70543;SDS011;58097;48.364;-1.224;2024-01-27T10:54:27;10.77;;;3.22;;
70543;SDS011;58097;48.364;-1.224;2024-01-27T10:56:53;12.93;;;2.80;;
70543;SDS011;58097;48.364;-1.224;2024-01-27T10:59:23;15.60;;;3.55;;
70543;SDS011;58097;48.364;-1.224;2024-01-27T11:01:52;22.63;;;4.30;;
70543;SDS011;58097;48.364;-1.224;2024-01-27T11:04:19;13.90;;;3.88;;
70543;SDS011;58097;48.364;-1.224;2024-01-27T11:06:46;11.30;;;2.72;;
70543;SDS011;58097;48.364;-1.224;2024-01-27T11:09:13;12.93;;;2.80;;
70543;SDS011;58097;48.364;-1.224;2024-01-27T11:11:39;10.10;;;2.72;;
70543;SDS011;58097;48.364;-1.224;2024-01-27T11:14:09;10.50;;;3.20;;
70543;SDS011;58097;48.364;-1.224;2024-01-27T11:16:36;17.88;;;3.20;;
70543;SDS011;58097;48.364;-1.224;2024-01-27T11:19:08;7.72;;;2.53;;
70543;SDS011;58097;48.364;-1.224;2024-01-27T11:21:35;15.10;;;3.10;;
70543;SDS011;58097;48.364;-1.224;2024-01-27T11:24:00;11.23;;;2.92;;
70543;SDS011;58097;48.364;-1.224;2024-01-27T11:26:26;14.93;;;3.30;;
70543;SDS011;58097;48.364;-1.224;2024-01-27T11:28:51;15.43;;;3.40;;
70543;SDS011;58097;48.364;-1.224;2024-01-27T11:31:17;12.25;;;3.47;;
70543;SDS011;58097;48.364;-1.224;2024-01-27T11:33:44;13.68;;;3.28;;
70543;SDS011;58097;48.364;-1.224;2024-01-27T11:36:18;14.40;;;3.30;;
70543;SDS011;58097;48.364;-1.224;2024-01-27T11:38:46;11.93;;;3.00;;
70543;SDS011;58097;48.364;-1.224;2024-01-27T11:41:12;18.60;;;2.90;;
70543;SDS011;58097;48.364;-1.224;2024-01-27T11:43:37;11.45;;;3.20;;
70543;SDS011;58097;48.364;-1.224;2024-01-27T11:46:03;13.48;;;2.97;;
70543;SDS011;58097;48.364;-1.224;2024-01-27T11:48:28;13.95;;;3.10;;
70543;SDS011;58097;48.364;-1.224;2024-01-27T11:51:08;11.85;;;2.65;;
70543;SDS011;58097;48.364;-1.224;2024-01-27T11:56:02;13.95;;;2.53;;
70543;SDS011;58097;48.364;-1.224;2024-01-27T11:58:29;15.23;;;3.80;;
70543;SDS011;58097;48.364;-1.224;2024-01-27T12:00:55;10.75;;;2.95;;
70543;SDS011;58097;48.364;-1.224;2024-01-27T12:03:21;13.98;;;3.20;;
70543;SDS011;58097;48.364;-1.224;2024-01-27T12:05:47;13.60;;;2.40;;
70543;SDS011;58097;48.364;-1.224;2024-01-27T12:08:13;15.98;;;2.63;;
70543;SDS011;58097;48.364;-1.224;2024-01-27T12:10:38;9.90;;;2.30;;
70543;SDS011;58097;48.364;-1.224;2024-01-27T12:13:03;12.13;;;2.63;;
70543;SDS011;58097;48.364;-1.224;2024-01-27T12:15:29;12.32;;;2.53;;
70543;SDS011;58097;48.364;-1.224;2024-01-27T12:17:54;12.60;;;2.90;;
70543;SDS011;58097;48.364;-1.224;2024-01-27T12:20:21;14.07;;;2.67;;
70543;SDS011;58097;48.364;-1.224;2024-01-27T12:22:47;14.05;;;3.08;;
70543;SDS011;58097;48.364;-1.224;2024-01-27T12:25:15;13.02;;;2.67;;
70543;SDS011;58097;48.364;-1.224;2024-01-27T12:27:41;11.00;;;2.88;;
70543;SDS011;58097;48.364;-1.224;2024-01-27T12:30:07;8.23;;;2.40;;
70543;SDS011;58097;48.364;-1.224;2024-01-27T12:32:33;11.32;;;3.08;;
70543;SDS011;58097;48.364;-1.224;2024-01-27T12:34:59;11.07;;;3.00;;
70543;SDS011;58097;48.364;-1.224;2024-01-27T12:37:29;11.70;;;2.67;;
70543;SDS011;58097;48.364;-1.224;2024-01-27T12:39:55;12.05;;;2.95;;
70543;SDS011;58097;48.364;-1.224;2024-01-27T12:42:20;11.10;;;2.75;;
70543;SDS011;58097;48.364;-1.224;2024-01-27T12:44:46;11.57;;;2.78;;
70543;SDS011;58097;48.364;-1.224;2024-01-27T12:47:11;9.45;;;2.60;;
70543;SDS011;58097;48.364;-1.224;2024-01-27T12:49:38;12.40;;;2.55;;
70543;SDS011;58097;48.364;-1.224;2024-01-27T12:52:04;9.05;;;2.53;;
70543;SDS011;58097;48.364;-1.224;2024-01-27T12:54:30;9.85;;;2.90;;
70543;SDS011;58097;48.364;-1.224;2024-01-27T12:56:56;12.50;;;2.50;;
70543;SDS011;58097;48.364;-1.224;2024-01-27T12:59:21;9.10;;;2.45;;
70543;SDS011;58097;48.364;-1.224;2024-01-27T13:01:48;13.93;;;2.63;;
70543;SDS011;58097;48.364;-1.224;2024-01-27T13:04:13;10.30;;;2.72;;
70543;SDS011;58097;48.364;-1.224;2024-01-27T13:06:39;7.45;;;2.45;;
70543;SDS011;58097;48.364;-1.224;2024-01-27T13:09:05;11.35;;;2.80;;
70543;SDS011;58097;48.364;-1.224;2024-01-27T13:11:30;12.85;;;2.47;;
70543;SDS011;58097;48.364;-1.224;2024-01-27T13:13:55;13.27;;;2.85;;
70543;SDS011;58097;48.364;-1.224;2024-01-27T13:16:21;13.23;;;2.80;;
70543;SDS011;58097;48.364;-1.224;2024-01-27T13:18:46;13.85;;;2.83;;
70543;SDS011;58097;48.364;-1.224;2024-01-27T13:21:11;11.20;;;2.92;;
70543;SDS011;58097;48.364;-1.224;2024-01-27T13:23:37;7.80;;;2.65;;
70543;SDS011;58097;48.364;-1.224;2024-01-27T13:26:02;9.98;;;2.83;;
70543;SDS011;58097;48.364;-1.224;2024-01-27T13:28:28;10.35;;;2.88;;
70543;SDS011;58097;48.364;-1.224;2024-01-27T13:30:53;11.23;;;2.25;;
70543;SDS011;58097;48.364;-1.224;2024-01-27T13:33:19;13.48;;;3.22;;
70543;SDS011;58097;48.364;-1.224;2024-01-27T13:35:44;11.85;;;3.20;;
70543;SDS011;58097;48.364;-1.224;2024-01-27T13:38:15;10.05;;;2.20;;
70543;SDS011;58097;48.364;-1.224;2024-01-27T13:40:44;13.30;;;2.38;;
70543;SDS011;58097;48.364;-1.224;2024-01-27T13:43:10;12.32;;;2.90;;
70543;SDS011;58097;48.364;-1.224;2024-01-27T13:45:35;10.60;;;2.45;;
70543;SDS011;58097;48.364;-1.224;2024-01-27T13:48:01;10.70;;;2.25;;
70543;SDS011;58097;48.364;-1.224;2024-01-27T13:50:26;10.52;;;2.53;;
70543;SDS011;58097;48.364;-1.224;2024-01-27T13:52:52;11.23;;;2.65;;
70543;SDS011;58097;48.364;-1.224;2024-01-27T13:55:18;10.75;;;2.33;;
70543;SDS011;58097;48.364;-1.224;2024-01-27T13:57:44;10.20;;;2.55;;
70543;SDS011;58097;48.364;-1.224;2024-01-27T14:00:09;13.93;;;2.90;;
70543;SDS011;58097;48.364;-1.224;2024-01-27T14:02:35;15.48;;;3.25;;
70543;SDS011;58097;48.364;-1.224;2024-01-27T14:05:01;13.90;;;3.00;;
70543;SDS011;58097;48.364;-1.224;2024-01-27T14:07:26;13.77;;;3.33;;
70543;SDS011;58097;48.364;-1.224;2024-01-27T14:09:51;12.77;;;3.35;;
70543;SDS011;58097;48.364;-1.224;2024-01-27T14:12:17;7.95;;;2.65;;
70543;SDS011;58097;48.364;-1.224;2024-01-27T14:14:43;9.95;;;2.53;;
70543;SDS011;58097;48.364;-1.224;2024-01-27T14:17:09;11.27;;;2.55;;